sensor_id;sensor_type;location;lat;lon;timestamp;P1;durP1;ratioP1;P2;durP2;ratioP2
47481;SDS011;33219;47.410;9.730;2023-04-24T00:02:06;1.75;;;1.32;;
47481;SDS011;33219;47.410;9.730;2023-04-24T00:04:35;1.57;;;1.20;;
47481;SDS011;33219;47.410;9.730;2023-04-24T00:07:05;1.55;;;0.95;;
47481;SDS011;33219;47.410;9.730;2023-04-24T00:09:33;3.92;;;1.20;;
47481;SDS011;33219;47.410;9.730;2023-04-24T00:12:01;2.67;;;0.90;;
47481;SDS011;33219;47.410;9.730;2023-04-24T00:14:30;1.45;;;0.90;;
47481;SDS011;33219;47.410;9.730;2023-04-24T00:16:58;2.12;;;1.40;;
47481;SDS011;33219;47.410;9.730;2023-04-24T00:19:26;1.50;;;1.00;;
47481;SDS011;33219;47.410;9.730;2023-04-24T00:21:54;3.27;;;1.10;;
47481;SDS011;33219;47.410;9.730;2023-04-24T00:24:22;2.12;;;1.20;;
47481;SDS011;33219;47.410;9.730;2023-04-24T00:26:49;2.10;;;1.42;;
47481;SDS011;33219;47.410;9.730;2023-04-24T00:29:17;2.70;;;1.37;;
47481;SDS011;33219;47.410;9.730;2023-04-24T00:31:44;1.60;;;1.12;;
47481;SDS011;33219;47.410;9.730;2023-04-24T00:34:12;2.65;;;1.25;;
47481;SDS011;33219;47.410;9.730;2023-04-24T00:36:39;2.77;;;1.45;;
47481;SDS011;33219;47.410;9.730;2023-04-24T00:39:07;2.47;;;1.50;;
47481;SDS011;33219;47.410;9.730;2023-04-24T00:41:35;3.02;;;2.00;;
47481;SDS011;33219;47.410;9.730;2023-04-24T00:44:03;2.87;;;2.00;;
47481;SDS011;33219;47.410;9.730;2023-04-24T00:46:30;3.17;;;2.30;;
47481;SDS011;33219;47.410;9.730;2023-04-24T00:48:59;3.92;;;2.35;;
47481;SDS011;33219;47.410;9.730;2023-04-24T00:51:26;4.62;;;2.70;;
47481;SDS011;33219;47.410;9.730;2023-04-24T00:53:54;4.65;;;2.62;;
47481;SDS011;33219;47.410;9.730;2023-04-24T00:56:21;4.25;;;2.10;;
47481;SDS011;33219;47.410;9.730;2023-04-24T00:58:49;3.20;;;1.70;;
47481;SDS011;33219;47.410;9.730;2023-04-24T01:01:20;2.75;;;1.70;;
47481;SDS011;33219;47.410;9.730;2023-04-24T01:03:49;2.33;;;1.70;;
47481;SDS011;33219;47.410;9.730;2023-04-24T01:06:18;2.40;;;1.60;;
47481;SDS011;33219;47.410;9.730;2023-04-24T01:08:46;3.22;;;1.70;;
47481;SDS011;33219;47.410;9.730;2023-04-24T01:11:15;3.30;;;1.77;;
47481;SDS011;33219;47.410;9.730;2023-04-24T01:13:42;4.55;;;2.12;;
47481;SDS011;33219;47.410;9.730;2023-04-24T01:16:10;3.25;;;1.85;;
47481;SDS011;33219;47.410;9.730;2023-04-24T01:18:38;3.12;;;2.00;;
47481;SDS011;33219;47.410;9.730;2023-04-24T01:21:05;4.37;;;2.00;;
47481;SDS011;33219;47.410;9.730;2023-04-24T01:23:35;4.42;;;2.52;;
47481;SDS011;33219;47.410;9.730;2023-04-24T01:26:02;4.53;;;2.00;;
47481;SDS011;33219;47.410;9.730;2023-04-24T01:28:30;3.33;;;1.80;;
47481;SDS011;33219;47.410;9.730;2023-04-24T01:30:58;3.55;;;1.70;;
47481;SDS011;33219;47.410;9.730;2023-04-24T01:33:26;2.50;;;1.67;;
47481;SDS011;33219;47.410;9.730;2023-04-24T01:35:54;2.12;;;1.50;;
47481;SDS011;33219;47.410;9.730;2023-04-24T01:38:22;2.52;;;1.50;;
47481;SDS011;33219;47.410;9.730;2023-04-24T01:40:49;3.22;;;1.60;;
47481;SDS011;33219;47.410;9.730;2023-04-24T01:43:17;2.60;;;1.65;;
47481;SDS011;33219;47.410;9.730;2023-04-24T01:45:45;3.62;;;1.85;;
47481;SDS011;33219;47.410;9.730;2023-04-24T01:48:13;3.25;;;1.50;;
47481;SDS011;33219;47.410;9.730;2023-04-24T01:50:41;3.17;;;1.80;;
47481;SDS011;33219;47.410;9.730;2023-04-24T01:53:08;3.12;;;2.12;;
47481;SDS011;33219;47.410;9.730;2023-04-24T01:55:37;3.20;;;1.87;;
47481;SDS011;33219;47.410;9.730;2023-04-24T01:58:04;3.27;;;2.10;;
47481;SDS011;33219;47.410;9.730;2023-04-24T02:00:32;2.40;;;1.70;;
47481;SDS011;33219;47.410;9.730;2023-04-24T02:03:00;2.45;;;1.65;;
47481;SDS011;33219;47.410;9.730;2023-04-24T02:05:28;2.95;;;1.50;;
47481;SDS011;33219;47.410;9.730;2023-04-24T02:07:55;2.42;;;1.57;;
47481;SDS011;33219;47.410;9.730;2023-04-24T02:10:23;2.67;;;1.62;;
47481;SDS011;33219;47.410;9.730;2023-04-24T02:12:51;1.75;;;1.30;;
47481;SDS011;33219;47.410;9.730;2023-04-24T02:15:18;1.55;;;1.20;;
47481;SDS011;33219;47.410;9.730;2023-04-24T02:17:46;1.80;;;1.10;;
47481;SDS011;33219;47.410;9.730;2023-04-24T02:20:13;2.22;;;1.10;;
47481;SDS011;33219;47.410;9.730;2023-04-24T02:22:41;2.52;;;1.20;;
47481;SDS011;33219;47.410;9.730;2023-04-24T02:25:09;2.02;;;1.22;;
47481;SDS011;33219;47.410;9.730;2023-04-24T02:27:36;1.27;;;0.88;;
47481;SDS011;33219;47.410;9.730;2023-04-24T02:30:04;3.15;;;1.30;;
47481;SDS011;33219;47.410;9.730;2023-04-24T02:32:33;1.85;;;1.20;;
47481;SDS011;33219;47.410;9.730;2023-04-24T02:35:00;1.60;;;1.10;;
47481;SDS011;33219;47.410;9.730;2023-04-24T02:37:28;2.52;;;1.10;;
47481;SDS011;33219;47.410;9.730;2023-04-24T02:39:55;2.08;;;1.20;;
47481;SDS011;33219;47.410;9.730;2023-04-24T02:42:23;1.95;;;1.20;;
47481;SDS011;33219;47.410;9.730;2023-04-24T02:44:50;1.45;;;1.20;;
47481;SDS011;33219;47.410;9.730;2023-04-24T02:47:18;3.65;;;1.60;;
47481;SDS011;33219;47.410;9.730;2023-04-24T02:49:45;2.72;;;1.60;;
47481;SDS011;33219;47.410;9.730;2023-04-24T02:52:13;2.87;;;1.90;;
47481;SDS011;33219;47.410;9.730;2023-04-24T02:54:42;3.02;;;2.10;;
47481;SDS011;33219;47.410;9.730;2023-04-24T02:57:10;3.80;;;2.27;;
47481;SDS011;33219;47.410;9.730;2023-04-24T02:59:37;6.20;;;3.20;;
47481;SDS011;33219;47.410;9.730;2023-04-24T03:02:05;3.55;;;2.70;;
47481;SDS011;33219;47.410;9.730;2023-04-24T03:04:33;3.37;;;2.40;;
47481;SDS011;33219;47.410;9.730;2023-04-24T03:07:00;3.00;;;1.87;;
47481;SDS011;33219;47.410;9.730;2023-04-24T03:09:28;2.83;;;1.92;;
47481;SDS011;33219;47.410;9.730;2023-04-24T03:11:56;4.22;;;2.27;;
47481;SDS011;33219;47.410;9.730;2023-04-24T03:14:24;4.40;;;2.27;;
47481;SDS011;33219;47.410;9.730;2023-04-24T03:16:51;2.75;;;1.45;;
47481;SDS011;33219;47.410;9.730;2023-04-24T03:19:19;2.30;;;1.35;;
47481;SDS011;33219;47.410;9.730;2023-04-24T03:21:46;1.70;;;1.20;;
47481;SDS011;33219;47.410;9.730;2023-04-24T03:24:14;3.27;;;1.37;;
47481;SDS011;33219;47.410;9.730;2023-04-24T03:26:42;1.00;;;0.90;;
47481;SDS011;33219;47.410;9.730;2023-04-24T03:29:09;1.72;;;1.02;;
47481;SDS011;33219;47.410;9.730;2023-04-24T03:31:37;2.47;;;1.10;;
47481;SDS011;33219;47.410;9.730;2023-04-24T03:34:04;1.77;;;1.15;;
47481;SDS011;33219;47.410;9.730;2023-04-24T03:36:32;2.22;;;1.30;;
47481;SDS011;33219;47.410;9.730;2023-04-24T03:38:59;1.77;;;1.20;;
47481;SDS011;33219;47.410;9.730;2023-04-24T03:41:27;2.58;;;1.20;;
47481;SDS011;33219;47.410;9.730;2023-04-24T03:43:55;3.27;;;1.50;;
47481;SDS011;33219;47.410;9.730;2023-04-24T03:46:23;2.95;;;1.82;;
47481;SDS011;33219;47.410;9.730;2023-04-24T03:48:51;2.65;;;1.60;;
47481;SDS011;33219;47.410;9.730;2023-04-24T03:51:18;2.98;;;1.70;;
47481;SDS011;33219;47.410;9.730;2023-04-24T03:53:46;2.90;;;1.98;;
47481;SDS011;33219;47.410;9.730;2023-04-24T03:56:14;2.30;;;1.52;;
47481;SDS011;33219;47.410;9.730;2023-04-24T03:58:41;3.87;;;1.90;;
47481;SDS011;33219;47.410;9.730;2023-04-24T04:01:09;3.27;;;1.82;;
47481;SDS011;33219;47.410;9.730;2023-04-24T04:03:37;3.70;;;2.10;;
47481;SDS011;33219;47.410;9.730;2023-04-24T04:06:05;3.50;;;2.60;;
47481;SDS011;33219;47.410;9.730;2023-04-24T04:08:33;3.70;;;2.42;;
47481;SDS011;33219;47.410;9.730;2023-04-24T04:11:01;3.72;;;2.20;;
47481;SDS011;33219;47.410;9.730;2023-04-24T04:13:28;4.50;;;2.27;;
47481;SDS011;33219;47.410;9.730;2023-04-24T04:15:56;3.55;;;2.83;;
47481;SDS011;33219;47.410;9.730;2023-04-24T04:18:24;3.10;;;2.08;;
47481;SDS011;33219;47.410;9.730;2023-04-24T04:20:51;3.10;;;2.17;;
47481;SDS011;33219;47.410;9.730;2023-04-24T04:23:19;2.30;;;1.70;;
47481;SDS011;33219;47.410;9.730;2023-04-24T04:25:46;2.45;;;1.85;;
47481;SDS011;33219;47.410;9.730;2023-04-24T04:28:14;3.60;;;1.80;;
47481;SDS011;33219;47.410;9.730;2023-04-24T04:30:41;3.02;;;1.80;;
47481;SDS011;33219;47.410;9.730;2023-04-24T04:33:09;3.40;;;1.70;;
47481;SDS011;33219;47.410;9.730;2023-04-24T04:35:37;2.62;;;1.72;;
47481;SDS011;33219;47.410;9.730;2023-04-24T04:38:05;3.05;;;1.55;;
47481;SDS011;33219;47.410;9.730;2023-04-24T04:40:34;2.77;;;2.08;;
47481;SDS011;33219;47.410;9.730;2023-04-24T04:43:02;2.22;;;1.65;;
47481;SDS011;33219;47.410;9.730;2023-04-24T04:45:29;3.52;;;1.50;;
47481;SDS011;33219;47.410;9.730;2023-04-24T04:47:58;3.80;;;1.82;;
47481;SDS011;33219;47.410;9.730;2023-04-24T04:50:28;4.45;;;2.20;;
47481;SDS011;33219;47.410;9.730;2023-04-24T04:52:55;3.77;;;1.80;;
47481;SDS011;33219;47.410;9.730;2023-04-24T04:55:23;2.83;;;1.55;;
47481;SDS011;33219;47.410;9.730;2023-04-24T04:57:51;4.80;;;1.90;;
47481;SDS011;33219;47.410;9.730;2023-04-24T05:00:19;2.67;;;1.80;;
47481;SDS011;33219;47.410;9.730;2023-04-24T05:02:46;3.10;;;2.10;;
47481;SDS011;33219;47.410;9.730;2023-04-24T05:05:14;3.25;;;2.22;;
47481;SDS011;33219;47.410;9.730;2023-04-24T05:07:43;2.95;;;2.20;;
47481;SDS011;33219;47.410;9.730;2023-04-24T05:10:11;4.50;;;3.10;;
47481;SDS011;33219;47.410;9.730;2023-04-24T05:12:38;4.33;;;3.25;;
47481;SDS011;33219;47.410;9.730;2023-04-24T05:15:06;3.70;;;2.90;;
47481;SDS011;33219;47.410;9.730;2023-04-24T05:17:34;2.42;;;1.75;;
47481;SDS011;33219;47.410;9.730;2023-04-24T05:20:02;2.20;;;1.62;;
47481;SDS011;33219;47.410;9.730;2023-04-24T05:22:32;2.02;;;1.60;;
47481;SDS011;33219;47.410;9.730;2023-04-24T05:24:59;2.22;;;1.40;;
47481;SDS011;33219;47.410;9.730;2023-04-24T05:27:28;2.42;;;1.30;;
47481;SDS011;33219;47.410;9.730;2023-04-24T05:29:56;3.08;;;1.98;;
47481;SDS011;33219;47.410;9.730;2023-04-24T05:32:35;4.70;;;3.00;;
47481;SDS011;33219;47.410;9.730;2023-04-24T05:35:13;5.20;;;3.70;;
47481;SDS011;33219;47.410;9.730;2023-04-24T05:37:45;3.80;;;3.05;;
47481;SDS011;33219;47.410;9.730;2023-04-24T05:40:24;3.85;;;2.60;;
47481;SDS011;33219;47.410;9.730;2023-04-24T05:43:10;4.03;;;2.60;;
47481;SDS011;33219;47.410;9.730;2023-04-24T05:46:05;4.72;;;2.27;;
47481;SDS011;33219;47.410;9.730;2023-04-24T05:51:57;3.77;;;1.80;;
47481;SDS011;33219;47.410;9.730;2023-04-24T05:57:15;3.35;;;1.70;;
47481;SDS011;33219;47.410;9.730;2023-04-24T06:00:42;2.08;;;1.40;;
47481;SDS011;33219;47.410;9.730;2023-04-24T06:02:43;4.40;;;1.60;;
47481;SDS011;33219;47.410;9.730;2023-04-24T06:05:21;2.27;;;1.52;;
47481;SDS011;33219;47.410;9.730;2023-04-24T06:07:59;2.87;;;1.75;;
47481;SDS011;33219;47.410;9.730;2023-04-24T06:10:48;3.35;;;1.80;;
47481;SDS011;33219;47.410;9.730;2023-04-24T06:13:29;2.87;;;1.40;;
47481;SDS011;33219;47.410;9.730;2023-04-24T06:25:33;2.80;;;1.90;;
47481;SDS011;33219;47.410;9.730;2023-04-24T06:31:03;2.17;;;1.30;;
47481;SDS011;33219;47.410;9.730;2023-04-24T06:43:17;1.37;;;1.07;;
47481;SDS011;33219;47.410;9.730;2023-04-24T06:48:22;4.60;;;1.70;;
47481;SDS011;33219;47.410;9.730;2023-04-24T06:50:52;4.22;;;2.10;;
47481;SDS011;33219;47.410;9.730;2023-04-24T06:53:36;3.72;;;1.72;;
47481;SDS011;33219;47.410;9.730;2023-04-24T06:56:11;4.70;;;2.22;;
47481;SDS011;33219;47.410;9.730;2023-04-24T06:58:42;6.90;;;2.50;;
47481;SDS011;33219;47.410;9.730;2023-04-24T07:01:12;3.95;;;2.60;;
47481;SDS011;33219;47.410;9.730;2023-04-24T07:03:41;4.35;;;2.65;;
47481;SDS011;33219;47.410;9.730;2023-04-24T07:06:10;3.42;;;2.52;;
47481;SDS011;33219;47.410;9.730;2023-04-24T07:20:29;3.75;;;2.00;;
47481;SDS011;33219;47.410;9.730;2023-04-24T07:23:04;3.52;;;2.52;;
47481;SDS011;33219;47.410;9.730;2023-04-24T07:31:43;4.70;;;2.80;;
47481;SDS011;33219;47.410;9.730;2023-04-24T07:37:32;4.65;;;2.70;;
47481;SDS011;33219;47.410;9.730;2023-04-24T07:40:28;4.00;;;2.65;;
47481;SDS011;33219;47.410;9.730;2023-04-24T07:43:07;3.83;;;2.37;;
47481;SDS011;33219;47.410;9.730;2023-04-24T07:45:51;4.08;;;2.47;;
47481;SDS011;33219;47.410;9.730;2023-04-24T07:48:42;3.65;;;2.40;;
47481;SDS011;33219;47.410;9.730;2023-04-24T07:51:29;3.33;;;2.47;;
47481;SDS011;33219;47.410;9.730;2023-04-24T07:54:06;4.25;;;2.45;;
47481;SDS011;33219;47.410;9.730;2023-04-24T07:56:43;5.80;;;2.20;;
47481;SDS011;33219;47.410;9.730;2023-04-24T07:59:23;3.45;;;1.98;;
47481;SDS011;33219;47.410;9.730;2023-04-24T08:02:16;2.65;;;1.60;;
47481;SDS011;33219;47.410;9.730;2023-04-24T08:04:53;2.05;;;1.45;;
47481;SDS011;33219;47.410;9.730;2023-04-24T08:07:37;2.45;;;1.70;;
47481;SDS011;33219;47.410;9.730;2023-04-24T08:10:27;2.45;;;1.50;;
47481;SDS011;33219;47.410;9.730;2023-04-24T08:13:11;2.70;;;1.57;;
47481;SDS011;33219;47.410;9.730;2023-04-24T08:15:59;3.10;;;1.45;;
47481;SDS011;33219;47.410;9.730;2023-04-24T08:18:36;2.40;;;1.45;;
47481;SDS011;33219;47.410;9.730;2023-04-24T08:21:21;3.58;;;1.80;;
47481;SDS011;33219;47.410;9.730;2023-04-24T08:24:00;2.83;;;1.65;;
47481;SDS011;33219;47.410;9.730;2023-04-24T08:26:38;1.75;;;1.47;;
47481;SDS011;33219;47.410;9.730;2023-04-24T08:29:18;2.62;;;1.90;;
47481;SDS011;33219;47.410;9.730;2023-04-24T08:32:02;3.95;;;1.50;;
47481;SDS011;33219;47.410;9.730;2023-04-24T08:40:33;2.75;;;1.70;;
47481;SDS011;33219;47.410;9.730;2023-04-24T08:43:08;3.12;;;1.80;;
47481;SDS011;33219;47.410;9.730;2023-04-24T08:45:54;2.50;;;1.50;;
47481;SDS011;33219;47.410;9.730;2023-04-24T08:51:16;4.53;;;2.00;;
47481;SDS011;33219;47.410;9.730;2023-04-24T08:53:54;3.60;;;1.80;;
47481;SDS011;33219;47.410;9.730;2023-04-24T08:56:29;3.85;;;2.10;;
47481;SDS011;33219;47.410;9.730;2023-04-24T08:59:04;2.40;;;1.70;;
47481;SDS011;33219;47.410;9.730;2023-04-24T09:01:39;5.53;;;2.10;;
47481;SDS011;33219;47.410;9.730;2023-04-24T09:04:15;3.72;;;2.33;;
47481;SDS011;33219;47.410;9.730;2023-04-24T09:09:47;2.33;;;1.60;;
47481;SDS011;33219;47.410;9.730;2023-04-24T09:12:27;3.58;;;1.72;;
47481;SDS011;33219;47.410;9.730;2023-04-24T09:15:18;2.10;;;1.37;;
47481;SDS011;33219;47.410;9.730;2023-04-24T09:18:15;2.95;;;1.90;;
47481;SDS011;33219;47.410;9.730;2023-04-24T09:21:07;3.15;;;1.80;;
47481;SDS011;33219;47.410;9.730;2023-04-24T09:23:46;5.20;;;2.10;;
47481;SDS011;33219;47.410;9.730;2023-04-24T09:26:22;2.40;;;1.70;;
47481;SDS011;33219;47.410;9.730;2023-04-24T09:28:58;3.40;;;1.90;;
47481;SDS011;33219;47.410;9.730;2023-04-24T09:31:32;1.82;;;1.30;;
47481;SDS011;33219;47.410;9.730;2023-04-24T09:34:06;3.58;;;1.40;;
47481;SDS011;33219;47.410;9.730;2023-04-24T09:36:41;3.55;;;2.00;;
47481;SDS011;33219;47.410;9.730;2023-04-24T09:39:14;1.95;;;1.35;;
47481;SDS011;33219;47.410;9.730;2023-04-24T09:41:47;3.90;;;1.52;;
47481;SDS011;33219;47.410;9.730;2023-04-24T09:47:06;4.03;;;2.10;;
47481;SDS011;33219;47.410;9.730;2023-04-24T09:49:35;4.15;;;2.00;;
47481;SDS011;33219;47.410;9.730;2023-04-24T09:52:07;2.92;;;1.77;;
47481;SDS011;33219;47.410;9.730;2023-04-24T09:54:46;2.72;;;1.80;;
47481;SDS011;33219;47.410;9.730;2023-04-24T09:57:18;4.03;;;2.00;;
47481;SDS011;33219;47.410;9.730;2023-04-24T09:59:53;6.35;;;2.45;;
47481;SDS011;33219;47.410;9.730;2023-04-24T10:02:28;5.40;;;1.75;;
47481;SDS011;33219;47.410;9.730;2023-04-24T10:05:01;2.87;;;1.55;;
47481;SDS011;33219;47.410;9.730;2023-04-24T10:07:35;3.00;;;1.57;;
47481;SDS011;33219;47.410;9.730;2023-04-24T10:10:13;2.65;;;1.60;;
47481;SDS011;33219;47.410;9.730;2023-04-24T10:12:56;3.70;;;1.80;;
47481;SDS011;33219;47.410;9.730;2023-04-24T10:15:35;3.33;;;1.92;;
47481;SDS011;33219;47.410;9.730;2023-04-24T10:18:09;3.02;;;2.10;;
47481;SDS011;33219;47.410;9.730;2023-04-24T10:20:46;2.98;;;2.02;;
47481;SDS011;33219;47.410;9.730;2023-04-24T10:23:21;3.35;;;2.12;;
47481;SDS011;33219;47.410;9.730;2023-04-24T10:25:58;3.67;;;2.20;;
47481;SDS011;33219;47.410;9.730;2023-04-24T10:28:42;4.65;;;2.70;;
47481;SDS011;33219;47.410;9.730;2023-04-24T10:31:19;5.42;;;2.50;;
47481;SDS011;33219;47.410;9.730;2023-04-24T10:40:14;2.52;;;1.80;;
47481;SDS011;33219;47.410;9.730;2023-04-24T10:45:33;3.05;;;1.80;;
47481;SDS011;33219;47.410;9.730;2023-04-24T10:48:43;2.52;;;1.67;;
47481;SDS011;33219;47.410;9.730;2023-04-24T10:51:26;3.45;;;2.10;;
47481;SDS011;33219;47.410;9.730;2023-04-24T10:56:53;2.87;;;1.70;;
47481;SDS011;33219;47.410;9.730;2023-04-24T11:02:47;2.40;;;1.62;;
47481;SDS011;33219;47.410;9.730;2023-04-24T11:05:24;3.55;;;2.10;;
47481;SDS011;33219;47.410;9.730;2023-04-24T11:08:21;3.37;;;2.00;;
47481;SDS011;33219;47.410;9.730;2023-04-24T11:16:33;3.40;;;2.27;;
47481;SDS011;33219;47.410;9.730;2023-04-24T11:30:16;3.05;;;1.72;;
47481;SDS011;33219;47.410;9.730;2023-04-24T11:33:01;2.70;;;1.67;;
47481;SDS011;33219;47.410;9.730;2023-04-24T11:38:29;3.37;;;1.45;;
47481;SDS011;33219;47.410;9.730;2023-04-24T11:41:09;3.10;;;1.50;;
47481;SDS011;33219;47.410;9.730;2023-04-24T11:43:49;2.35;;;1.37;;
47481;SDS011;33219;47.410;9.730;2023-04-24T11:46:27;3.15;;;1.67;;
47481;SDS011;33219;47.410;9.730;2023-04-24T11:49:09;3.62;;;1.65;;
47481;SDS011;33219;47.410;9.730;2023-04-24T11:51:46;2.72;;;1.90;;
47481;SDS011;33219;47.410;9.730;2023-04-24T11:54:36;4.80;;;1.98;;
47481;SDS011;33219;47.410;9.730;2023-04-24T11:57:17;3.37;;;1.80;;
47481;SDS011;33219;47.410;9.730;2023-04-24T11:59:57;2.90;;;2.00;;
47481;SDS011;33219;47.410;9.730;2023-04-24T12:02:42;3.25;;;1.98;;
47481;SDS011;33219;47.410;9.730;2023-04-24T12:05:25;3.45;;;1.92;;
47481;SDS011;33219;47.410;9.730;2023-04-24T12:08:07;4.12;;;1.90;;
47481;SDS011;33219;47.410;9.730;2023-04-24T12:10:48;4.33;;;1.80;;
47481;SDS011;33219;47.410;9.730;2023-04-24T12:13:24;4.60;;;1.80;;
47481;SDS011;33219;47.410;9.730;2023-04-24T12:16:04;5.78;;;2.10;;
47481;SDS011;33219;47.410;9.730;2023-04-24T12:18:52;5.05;;;2.37;;
47481;SDS011;33219;47.410;9.730;2023-04-24T12:21:28;5.47;;;2.58;;
47481;SDS011;33219;47.410;9.730;2023-04-24T12:26:56;3.62;;;2.55;;
47481;SDS011;33219;47.410;9.730;2023-04-24T12:32:25;5.42;;;2.62;;
47481;SDS011;33219;47.410;9.730;2023-04-24T12:35:00;5.22;;;2.70;;
47481;SDS011;33219;47.410;9.730;2023-04-24T12:37:43;3.42;;;2.47;;
47481;SDS011;33219;47.410;9.730;2023-04-24T12:40:11;4.53;;;2.60;;
47481;SDS011;33219;47.410;9.730;2023-04-24T12:42:48;5.00;;;2.70;;
47481;SDS011;33219;47.410;9.730;2023-04-24T12:45:23;5.58;;;2.80;;
47481;SDS011;33219;47.410;9.730;2023-04-24T12:47:59;3.47;;;2.65;;
47481;SDS011;33219;47.410;9.730;2023-04-24T12:50:35;4.05;;;2.60;;
47481;SDS011;33219;47.410;9.730;2023-04-24T12:53:30;4.33;;;2.95;;
47481;SDS011;33219;47.410;9.730;2023-04-24T13:01:28;10.90;;;3.60;;
47481;SDS011;33219;47.410;9.730;2023-04-24T13:04:08;7.47;;;3.47;;
47481;SDS011;33219;47.410;9.730;2023-04-24T13:06:47;3.85;;;2.65;;
47481;SDS011;33219;47.410;9.730;2023-04-24T13:09:23;4.95;;;2.70;;
47481;SDS011;33219;47.410;9.730;2023-04-24T13:12:03;3.50;;;2.47;;
47481;SDS011;33219;47.410;9.730;2023-04-24T13:17:20;4.65;;;2.92;;
47481;SDS011;33219;47.410;9.730;2023-04-24T13:19:50;5.30;;;3.42;;
47481;SDS011;33219;47.410;9.730;2023-04-24T13:22:41;4.45;;;2.80;;
47481;SDS011;33219;47.410;9.730;2023-04-24T13:25:15;4.92;;;2.60;;
47481;SDS011;33219;47.410;9.730;2023-04-24T13:27:50;4.20;;;2.47;;
47481;SDS011;33219;47.410;9.730;2023-04-24T13:30:24;4.72;;;2.90;;
47481;SDS011;33219;47.410;9.730;2023-04-24T13:32:59;4.62;;;2.55;;
47481;SDS011;33219;47.410;9.730;2023-04-24T13:35:37;4.22;;;2.80;;
47481;SDS011;33219;47.410;9.730;2023-04-24T13:38:11;3.92;;;2.60;;
47481;SDS011;33219;47.410;9.730;2023-04-24T13:40:42;4.53;;;3.00;;
47481;SDS011;33219;47.410;9.730;2023-04-24T13:43:17;4.83;;;3.30;;
47481;SDS011;33219;47.410;9.730;2023-04-24T13:45:54;5.03;;;3.30;;
47481;SDS011;33219;47.410;9.730;2023-04-24T13:48:32;5.83;;;3.25;;
47481;SDS011;33219;47.410;9.730;2023-04-24T13:51:00;5.15;;;3.15;;
47481;SDS011;33219;47.410;9.730;2023-04-24T13:53:30;4.75;;;2.70;;
47481;SDS011;33219;47.410;9.730;2023-04-24T13:56:02;8.63;;;3.00;;
47481;SDS011;33219;47.410;9.730;2023-04-24T13:58:36;3.37;;;2.20;;
47481;SDS011;33219;47.410;9.730;2023-04-24T14:01:14;3.33;;;2.40;;
47481;SDS011;33219;47.410;9.730;2023-04-24T14:04:01;4.08;;;2.50;;
47481;SDS011;33219;47.410;9.730;2023-04-24T14:06:39;3.47;;;2.42;;
47481;SDS011;33219;47.410;9.730;2023-04-24T14:09:25;3.37;;;1.82;;
47481;SDS011;33219;47.410;9.730;2023-04-24T14:11:59;3.52;;;2.20;;
47481;SDS011;33219;47.410;9.730;2023-04-24T14:14:45;4.90;;;2.45;;
47481;SDS011;33219;47.410;9.730;2023-04-24T14:17:15;4.08;;;2.60;;
47481;SDS011;33219;47.410;9.730;2023-04-24T14:19:43;4.67;;;2.50;;
47481;SDS011;33219;47.410;9.730;2023-04-24T14:22:10;4.00;;;2.35;;
47481;SDS011;33219;47.410;9.730;2023-04-24T14:24:38;5.28;;;2.50;;
47481;SDS011;33219;47.410;9.730;2023-04-24T14:27:06;3.77;;;2.45;;
47481;SDS011;33219;47.410;9.730;2023-04-24T14:29:33;3.20;;;2.17;;
47481;SDS011;33219;47.410;9.730;2023-04-24T14:32:01;3.83;;;2.27;;
47481;SDS011;33219;47.410;9.730;2023-04-24T14:34:29;4.53;;;2.80;;
47481;SDS011;33219;47.410;9.730;2023-04-24T14:36:56;3.77;;;2.40;;
47481;SDS011;33219;47.410;9.730;2023-04-24T14:39:24;4.53;;;2.45;;
47481;SDS011;33219;47.410;9.730;2023-04-24T14:41:52;4.08;;;2.55;;
47481;SDS011;33219;47.410;9.730;2023-04-24T14:44:20;3.58;;;2.50;;
47481;SDS011;33219;47.410;9.730;2023-04-24T14:46:48;5.12;;;2.65;;
47481;SDS011;33219;47.410;9.730;2023-04-24T14:49:16;4.35;;;2.35;;
47481;SDS011;33219;47.410;9.730;2023-04-24T14:51:43;4.55;;;2.65;;
47481;SDS011;33219;47.410;9.730;2023-04-24T14:54:11;2.98;;;2.25;;
47481;SDS011;33219;47.410;9.730;2023-04-24T14:56:39;3.52;;;2.10;;
47481;SDS011;33219;47.410;9.730;2023-04-24T14:59:08;3.35;;;2.30;;
47481;SDS011;33219;47.410;9.730;2023-04-24T15:01:36;5.12;;;2.62;;
47481;SDS011;33219;47.410;9.730;2023-04-24T15:04:03;4.05;;;2.50;;
47481;SDS011;33219;47.410;9.730;2023-04-24T15:06:31;4.25;;;2.62;;
47481;SDS011;33219;47.410;9.730;2023-04-24T15:08:59;5.10;;;3.10;;
47481;SDS011;33219;47.410;9.730;2023-04-24T15:11:26;6.03;;;2.70;;
47481;SDS011;33219;47.410;9.730;2023-04-24T15:13:55;4.47;;;2.67;;
47481;SDS011;33219;47.410;9.730;2023-04-24T15:16:23;4.50;;;2.40;;
47481;SDS011;33219;47.410;9.730;2023-04-24T15:18:51;5.35;;;2.50;;
47481;SDS011;33219;47.410;9.730;2023-04-24T15:21:18;3.65;;;2.50;;
47481;SDS011;33219;47.410;9.730;2023-04-24T15:23:46;3.05;;;2.40;;
47481;SDS011;33219;47.410;9.730;2023-04-24T15:26:13;4.05;;;2.35;;
47481;SDS011;33219;47.410;9.730;2023-04-24T15:28:41;4.55;;;2.50;;
47481;SDS011;33219;47.410;9.730;2023-04-24T15:31:09;4.20;;;2.52;;
47481;SDS011;33219;47.410;9.730;2023-04-24T15:33:36;5.55;;;2.37;;
47481;SDS011;33219;47.410;9.730;2023-04-24T15:36:04;3.85;;;2.30;;
47481;SDS011;33219;47.410;9.730;2023-04-24T15:38:32;4.12;;;2.22;;
47481;SDS011;33219;47.410;9.730;2023-04-24T15:40:59;2.95;;;2.25;;
47481;SDS011;33219;47.410;9.730;2023-04-24T15:43:27;3.33;;;2.40;;
47481;SDS011;33219;47.410;9.730;2023-04-24T15:45:56;4.08;;;2.17;;
47481;SDS011;33219;47.410;9.730;2023-04-24T15:48:24;3.83;;;2.50;;
47481;SDS011;33219;47.410;9.730;2023-04-24T15:50:53;3.58;;;2.35;;
47481;SDS011;33219;47.410;9.730;2023-04-24T15:53:21;4.75;;;2.10;;
47481;SDS011;33219;47.410;9.730;2023-04-24T15:55:53;3.42;;;2.05;;
47481;SDS011;33219;47.410;9.730;2023-04-24T15:58:22;4.00;;;2.10;;
47481;SDS011;33219;47.410;9.730;2023-04-24T16:00:50;3.72;;;2.12;;
47481;SDS011;33219;47.410;9.730;2023-04-24T16:03:19;3.70;;;2.45;;
47481;SDS011;33219;47.410;9.730;2023-04-24T16:05:47;5.47;;;2.62;;
47481;SDS011;33219;47.410;9.730;2023-04-24T16:08:15;5.10;;;2.70;;
47481;SDS011;33219;47.410;9.730;2023-04-24T16:10:42;4.15;;;2.30;;
47481;SDS011;33219;47.410;9.730;2023-04-24T16:13:12;5.55;;;3.80;;
47481;SDS011;33219;47.410;9.730;2023-04-24T16:15:42;5.15;;;2.90;;
47481;SDS011;33219;47.410;9.730;2023-04-24T16:18:11;3.77;;;2.80;;
47481;SDS011;33219;47.410;9.730;2023-04-24T16:20:38;3.58;;;2.70;;
47481;SDS011;33219;47.410;9.730;2023-04-24T16:23:06;6.33;;;3.00;;
47481;SDS011;33219;47.410;9.730;2023-04-24T16:25:34;4.80;;;3.40;;
47481;SDS011;33219;47.410;9.730;2023-04-24T16:28:01;4.33;;;2.95;;
47481;SDS011;33219;47.410;9.730;2023-04-24T16:30:29;4.28;;;2.87;;
47481;SDS011;33219;47.410;9.730;2023-04-24T16:32:57;5.33;;;3.17;;
47481;SDS011;33219;47.410;9.730;2023-04-24T16:35:24;6.47;;;3.50;;
47481;SDS011;33219;47.410;9.730;2023-04-24T16:37:52;5.12;;;3.60;;
47481;SDS011;33219;47.410;9.730;2023-04-24T16:40:20;5.15;;;3.47;;
47481;SDS011;33219;47.410;9.730;2023-04-24T16:42:47;5.25;;;3.50;;
47481;SDS011;33219;47.410;9.730;2023-04-24T16:45:16;4.12;;;2.62;;
47481;SDS011;33219;47.410;9.730;2023-04-24T16:47:43;3.40;;;2.60;;
47481;SDS011;33219;47.410;9.730;2023-04-24T16:50:11;4.85;;;3.05;;
47481;SDS011;33219;47.410;9.730;2023-04-24T16:52:38;7.30;;;3.12;;
47481;SDS011;33219;47.410;9.730;2023-04-24T16:55:07;4.15;;;2.65;;
47481;SDS011;33219;47.410;9.730;2023-04-24T16:57:35;4.53;;;3.10;;
47481;SDS011;33219;47.410;9.730;2023-04-24T17:00:03;4.87;;;3.08;;
47481;SDS011;33219;47.410;9.730;2023-04-24T17:02:31;4.30;;;2.80;;
47481;SDS011;33219;47.410;9.730;2023-04-24T17:04:58;5.30;;;2.70;;
47481;SDS011;33219;47.410;9.730;2023-04-24T17:07:29;3.90;;;2.90;;
47481;SDS011;33219;47.410;9.730;2023-04-24T17:09:57;7.33;;;3.67;;
47481;SDS011;33219;47.410;9.730;2023-04-24T17:12:24;5.60;;;3.45;;
47481;SDS011;33219;47.410;9.730;2023-04-24T17:14:52;4.95;;;2.58;;